sensor_id;sensor_type;location;lat;lon;timestamp;temperature;humidity
54126;DHT22;40360;52.992;6.796;2023-04-24T00:02:04;10.70;99.90
54126;DHT22;40360;52.992;6.796;2023-04-24T00:04:32;10.70;99.90
54126;DHT22;40360;52.992;6.796;2023-04-24T00:06:57;10.70;99.90
54126;DHT22;40360;52.992;6.796;2023-04-24T00:09:25;10.60;99.90
54126;DHT22;40360;52.992;6.796;2023-04-24T00:11:52;10.60;99.90
54126;DHT22;40360;52.992;6.796;2023-04-24T00:14:19;10.60;99.90
54126;DHT22;40360;52.992;6.796;2023-04-24T00:16:44;10.60;99.90
54126;DHT22;40360;52.992;6.796;2023-04-24T00:19:10;10.50;99.90
54126;DHT22;40360;52.992;6.796;2023-04-24T00:21:36;10.50;99.90
54126;DHT22;40360;52.992;6.796;2023-04-24T00:24:03;10.40;99.90
54126;DHT22;40360;52.992;6.796;2023-04-24T00:26:28;10.40;99.90
54126;DHT22;40360;52.992;6.796;2023-04-24T00:28:57;10.30;99.90
54126;DHT22;40360;52.992;6.796;2023-04-24T00:31:23;10.30;99.90
54126;DHT22;40360;52.992;6.796;2023-04-24T00:33:48;10.30;99.90
54126;DHT22;40360;52.992;6.796;2023-04-24T00:36:14;10.30;99.90
54126;DHT22;40360;52.992;6.796;2023-04-24T00:38:39;10.30;99.90
54126;DHT22;40360;52.992;6.796;2023-04-24T00:41:06;10.30;99.90
54126;DHT22;40360;52.992;6.796;2023-04-24T00:43:32;10.30;99.90
54126;DHT22;40360;52.992;6.796;2023-04-24T00:45:58;10.20;99.90
54126;DHT22;40360;52.992;6.796;2023-04-24T00:48:25;10.30;99.90
54126;DHT22;40360;52.992;6.796;2023-04-24T00:50:51;10.20;99.90
54126;DHT22;40360;52.992;6.796;2023-04-24T00:53:16;10.20;99.90
54126;DHT22;40360;52.992;6.796;2023-04-24T00:55:42;10.20;99.90
54126;DHT22;40360;52.992;6.796;2023-04-24T00:58:08;10.20;99.90
54126;DHT22;40360;52.992;6.796;2023-04-24T01:00:33;10.10;99.90
54126;DHT22;40360;52.992;6.796;2023-04-24T01:03:01;10.10;99.90
54126;DHT22;40360;52.992;6.796;2023-04-24T01:05:27;10.10;99.90
54126;DHT22;40360;52.992;6.796;2023-04-24T01:07:53;10.10;99.90
54126;DHT22;40360;52.992;6.796;2023-04-24T01:10:18;10.10;99.90
54126;DHT22;40360;52.992;6.796;2023-04-24T01:12:46;10.00;99.90
54126;DHT22;40360;52.992;6.796;2023-04-24T01:15:11;10.00;99.90
54126;DHT22;40360;52.992;6.796;2023-04-24T01:17:37;10.00;99.90
54126;DHT22;40360;52.992;6.796;2023-04-24T01:20:04;10.00;99.90
54126;DHT22;40360;52.992;6.796;2023-04-24T01:22:32;10.00;99.90
54126;DHT22;40360;52.992;6.796;2023-04-24T01:24:57;10.10;99.90
54126;DHT22;40360;52.992;6.796;2023-04-24T01:27:23;10.00;99.90
54126;DHT22;40360;52.992;6.796;2023-04-24T01:29:50;10.00;99.90
54126;DHT22;40360;52.992;6.796;2023-04-24T01:32:17;10.00;99.90
54126;DHT22;40360;52.992;6.796;2023-04-24T01:34:44;10.00;99.90
54126;DHT22;40360;52.992;6.796;2023-04-24T01:37:10;10.00;99.90
54126;DHT22;40360;52.992;6.796;2023-04-24T01:39:36;10.10;99.90
54126;DHT22;40360;52.992;6.796;2023-04-24T01:42:02;10.00;99.90
54126;DHT22;40360;52.992;6.796;2023-04-24T01:44:28;9.90;99.90
54126;DHT22;40360;52.992;6.796;2023-04-24T01:46:55;9.90;99.90
54126;DHT22;40360;52.992;6.796;2023-04-24T01:49:21;9.90;99.90
54126;DHT22;40360;52.992;6.796;2023-04-24T01:51:46;10.00;99.90
54126;DHT22;40360;52.992;6.796;2023-04-24T01:54:12;10.00;99.90
54126;DHT22;40360;52.992;6.796;2023-04-24T01:56:41;9.90;99.90
54126;DHT22;40360;52.992;6.796;2023-04-24T01:59:11;10.00;99.90
54126;DHT22;40360;52.992;6.796;2023-04-24T02:01:37;9.90;99.90
54126;DHT22;40360;52.992;6.796;2023-04-24T02:04:04;9.90;99.90
54126;DHT22;40360;52.992;6.796;2023-04-24T02:06:30;9.90;99.90
54126;DHT22;40360;52.992;6.796;2023-04-24T02:09:00;9.90;99.90
54126;DHT22;40360;52.992;6.796;2023-04-24T02:11:26;9.90;99.90
54126;DHT22;40360;52.992;6.796;2023-04-24T02:13:52;9.90;99.90
54126;DHT22;40360;52.992;6.796;2023-04-24T02:16:18;9.80;99.90
54126;DHT22;40360;52.992;6.796;2023-04-24T02:18:44;9.80;99.90
54126;DHT22;40360;52.992;6.796;2023-04-24T02:21:09;9.80;99.90
54126;DHT22;40360;52.992;6.796;2023-04-24T02:23:35;9.70;99.90
54126;DHT22;40360;52.992;6.796;2023-04-24T02:26:01;9.70;99.90
54126;DHT22;40360;52.992;6.796;2023-04-24T02:28:26;9.60;99.90
54126;DHT22;40360;52.992;6.796;2023-04-24T02:30:52;9.60;99.90
54126;DHT22;40360;52.992;6.796;2023-04-24T02:33:18;9.60;99.90
54126;DHT22;40360;52.992;6.796;2023-04-24T02:35:43;9.60;99.90
54126;DHT22;40360;52.992;6.796;2023-04-24T02:38:09;9.60;99.90
54126;DHT22;40360;52.992;6.796;2023-04-24T02:40:34;9.60;99.90
54126;DHT22;40360;52.992;6.796;2023-04-24T02:43:00;9.50;99.90
54126;DHT22;40360;52.992;6.796;2023-04-24T02:45:25;9.50;99.90
54126;DHT22;40360;52.992;6.796;2023-04-24T02:47:51;9.50;99.90
54126;DHT22;40360;52.992;6.796;2023-04-24T02:50:17;9.50;99.90
54126;DHT22;40360;52.992;6.796;2023-04-24T02:52:42;9.50;99.90
54126;DHT22;40360;52.992;6.796;2023-04-24T02:55:08;9.50;99.90
54126;DHT22;40360;52.992;6.796;2023-04-24T02:57:34;9.50;99.90
54126;DHT22;40360;52.992;6.796;2023-04-24T02:59:59;9.40;99.90
54126;DHT22;40360;52.992;6.796;2023-04-24T03:02:25;9.50;99.90
54126;DHT22;40360;52.992;6.796;2023-04-24T03:04:51;9.40;99.90
54126;DHT22;40360;52.992;6.796;2023-04-24T03:07:16;9.40;99.90
54126;DHT22;40360;52.992;6.796;2023-04-24T03:09:42;9.40;99.90
54126;DHT22;40360;52.992;6.796;2023-04-24T03:12:08;9.40;99.90
54126;DHT22;40360;52.992;6.796;2023-04-24T03:14:33;9.40;99.90
54126;DHT22;40360;52.992;6.796;2023-04-24T03:17:00;9.40;99.90
54126;DHT22;40360;52.992;6.796;2023-04-24T03:19:25;9.40;99.90
54126;DHT22;40360;52.992;6.796;2023-04-24T03:21:51;9.40;99.90
54126;DHT22;40360;52.992;6.796;2023-04-24T03:24:17;9.40;99.90
54126;DHT22;40360;52.992;6.796;2023-04-24T03:26:42;9.40;99.90
54126;DHT22;40360;52.992;6.796;2023-04-24T03:29:08;9.40;99.90
54126;DHT22;40360;52.992;6.796;2023-04-24T03:31:33;9.40;99.90
54126;DHT22;40360;52.992;6.796;2023-04-24T03:33:59;9.40;99.90
54126;DHT22;40360;52.992;6.796;2023-04-24T03:36:24;9.50;99.90
54126;DHT22;40360;52.992;6.796;2023-04-24T03:38:51;9.30;99.90
54126;DHT22;40360;52.992;6.796;2023-04-24T03:41:17;9.40;99.90
54126;DHT22;40360;52.992;6.796;2023-04-24T03:43:42;9.30;99.90
54126;DHT22;40360;52.992;6.796;2023-04-24T03:46:08;9.30;99.90
54126;DHT22;40360;52.992;6.796;2023-04-24T03:48:35;9.30;99.90
54126;DHT22;40360;52.992;6.796;2023-04-24T03:51:00;9.30;99.90
54126;DHT22;40360;52.992;6.796;2023-04-24T03:53:26;9.30;99.90
54126;DHT22;40360;52.992;6.796;2023-04-24T03:55:53;9.30;99.90
54126;DHT22;40360;52.992;6.796;2023-04-24T03:58:19;9.30;99.90
54126;DHT22;40360;52.992;6.796;2023-04-24T04:00:44;9.30;99.90
54126;DHT22;40360;52.992;6.796;2023-04-24T04:03:12;9.30;99.90
54126;DHT22;40360;52.992;6.796;2023-04-24T04:05:39;9.30;99.90
54126;DHT22;40360;52.992;6.796;2023-04-24T04:08:04;9.30;99.90
54126;DHT22;40360;52.992;6.796;2023-04-24T04:10:30;9.30;99.90
54126;DHT22;40360;52.992;6.796;2023-04-24T04:12:56;9.20;99.90
54126;DHT22;40360;52.992;6.796;2023-04-24T04:15:21;9.20;99.90
54126;DHT22;40360;52.992;6.796;2023-04-24T04:17:47;9.30;99.90
54126;DHT22;40360;52.992;6.796;2023-04-24T04:20:12;9.30;99.90
54126;DHT22;40360;52.992;6.796;2023-04-24T04:22:39;9.30;99.90
54126;DHT22;40360;52.992;6.796;2023-04-24T04:25:05;9.30;99.90
54126;DHT22;40360;52.992;6.796;2023-04-24T04:27:31;9.30;99.90
54126;DHT22;40360;52.992;6.796;2023-04-24T04:30:01;9.20;99.90
54126;DHT22;40360;52.992;6.796;2023-04-24T04:32:33;9.20;99.90
54126;DHT22;40360;52.992;6.796;2023-04-24T04:35:00;9.30;99.90
54126;DHT22;40360;52.992;6.796;2023-04-24T04:37:29;9.30;99.90
54126;DHT22;40360;52.992;6.796;2023-04-24T04:39:54;9.30;99.90
54126;DHT22;40360;52.992;6.796;2023-04-24T04:42:20;9.30;99.90
54126;DHT22;40360;52.992;6.796;2023-04-24T04:44:45;9.30;99.90
54126;DHT22;40360;52.992;6.796;2023-04-24T04:47:11;9.30;99.90
54126;DHT22;40360;52.992;6.796;2023-04-24T04:49:38;9.30;99.90
54126;DHT22;40360;52.992;6.796;2023-04-24T04:52:04;9.30;99.90
54126;DHT22;40360;52.992;6.796;2023-04-24T04:54:30;9.30;99.90
54126;DHT22;40360;52.992;6.796;2023-04-24T04:56:56;9.30;99.90
54126;DHT22;40360;52.992;6.796;2023-04-24T04:59:22;9.30;99.90
54126;DHT22;40360;52.992;6.796;2023-04-24T05:01:48;9.40;99.90
54126;DHT22;40360;52.992;6.796;2023-04-24T05:04:13;9.30;99.90
54126;DHT22;40360;52.992;6.796;2023-04-24T05:06:39;9.30;99.90
54126;DHT22;40360;52.992;6.796;2023-04-24T05:09:05;10.40;99.90
54126;DHT22;40360;52.992;6.796;2023-04-24T05:11:32;9.40;99.90
54126;DHT22;40360;52.992;6.796;2023-04-24T05:13:58;9.40;99.90
54126;DHT22;40360;52.992;6.796;2023-04-24T05:16:23;9.30;99.90
54126;DHT22;40360;52.992;6.796;2023-04-24T05:18:49;9.30;99.90
54126;DHT22;40360;52.992;6.796;2023-04-24T05:21:15;9.40;99.90
54126;DHT22;40360;52.992;6.796;2023-04-24T05:23:40;9.30;99.90
54126;DHT22;40360;52.992;6.796;2023-04-24T05:26:06;9.40;99.90
54126;DHT22;40360;52.992;6.796;2023-04-24T05:28:32;9.30;99.90
54126;DHT22;40360;52.992;6.796;2023-04-24T05:30:57;9.20;99.90
54126;DHT22;40360;52.992;6.796;2023-04-24T05:33:24;9.20;99.90
54126;DHT22;40360;52.992;6.796;2023-04-24T05:35:50;9.20;99.90
54126;DHT22;40360;52.992;6.796;2023-04-24T05:38:16;9.20;99.90
54126;DHT22;40360;52.992;6.796;2023-04-24T05:40:45;9.20;99.90
54126;DHT22;40360;52.992;6.796;2023-04-24T06:01:00;9.20;99.90
54126;DHT22;40360;52.992;6.796;2023-04-24T06:03:27;9.20;99.90
54126;DHT22;40360;52.992;6.796;2023-04-24T06:05:53;9.20;99.90
54126;DHT22;40360;52.992;6.796;2023-04-24T06:08:19;9.20;99.90
54126;DHT22;40360;52.992;6.796;2023-04-24T06:10:45;9.20;99.90
54126;DHT22;40360;52.992;6.796;2023-04-24T06:13:10;9.20;99.90
54126;DHT22;40360;52.992;6.796;2023-04-24T06:15:36;9.20;99.90
54126;DHT22;40360;52.992;6.796;2023-04-24T06:18:02;9.20;99.90
54126;DHT22;40360;52.992;6.796;2023-04-24T06:20:28;9.20;99.90
54126;DHT22;40360;52.992;6.796;2023-04-24T06:22:54;9.20;99.90
54126;DHT22;40360;52.992;6.796;2023-04-24T06:25:20;9.20;99.90
54126;DHT22;40360;52.992;6.796;2023-04-24T06:27:45;9.40;99.90
54126;DHT22;40360;52.992;6.796;2023-04-24T06:30:11;9.30;99.90
54126;DHT22;40360;52.992;6.796;2023-04-24T06:32:37;9.30;99.90
54126;DHT22;40360;52.992;6.796;2023-04-24T06:35:03;9.30;99.90
54126;DHT22;40360;52.992;6.796;2023-04-24T06:37:29;9.30;99.90
54126;DHT22;40360;52.992;6.796;2023-04-24T06:39:55;9.30;99.90
54126;DHT22;40360;52.992;6.796;2023-04-24T06:42:20;9.30;99.90
54126;DHT22;40360;52.992;6.796;2023-04-24T06:44:47;9.40;99.90
54126;DHT22;40360;52.992;6.796;2023-04-24T06:47:13;9.30;99.90
54126;DHT22;40360;52.992;6.796;2023-04-24T06:49:39;9.30;99.90
54126;DHT22;40360;52.992;6.796;2023-04-24T06:52:05;9.30;99.90
54126;DHT22;40360;52.992;6.796;2023-04-24T06:54:32;9.30;99.90
54126;DHT22;40360;52.992;6.796;2023-04-24T06:57:01;9.40;99.90
54126;DHT22;40360;52.992;6.796;2023-04-24T06:59:27;9.40;99.90
54126;DHT22;40360;52.992;6.796;2023-04-24T07:01:54;9.50;99.90
54126;DHT22;40360;52.992;6.796;2023-04-24T07:04:20;9.50;99.90
54126;DHT22;40360;52.992;6.796;2023-04-24T07:06:46;9.50;99.90
54126;DHT22;40360;52.992;6.796;2023-04-24T07:09:12;9.50;99.90
54126;DHT22;40360;52.992;6.796;2023-04-24T07:11:39;9.60;99.90
54126;DHT22;40360;52.992;6.796;2023-04-24T07:14:06;9.60;99.90
54126;DHT22;40360;52.992;6.796;2023-04-24T07:16:32;9.70;99.90
54126;DHT22;40360;52.992;6.796;2023-04-24T07:18:57;9.80;99.90
54126;DHT22;40360;52.992;6.796;2023-04-24T07:21:23;9.90;99.90
54126;DHT22;40360;52.992;6.796;2023-04-24T07:23:49;9.90;99.90
54126;DHT22;40360;52.992;6.796;2023-04-24T07:26:14;10.00;99.90
54126;DHT22;40360;52.992;6.796;2023-04-24T07:28:40;10.10;99.90
54126;DHT22;40360;52.992;6.796;2023-04-24T07:31:08;10.10;99.90
54126;DHT22;40360;52.992;6.796;2023-04-24T07:33:34;10.20;99.90
54126;DHT22;40360;52.992;6.796;2023-04-24T07:36:01;10.30;99.90
54126;DHT22;40360;52.992;6.796;2023-04-24T07:38:29;10.30;99.90
54126;DHT22;40360;52.992;6.796;2023-04-24T07:40:55;10.30;99.90
54126;DHT22;40360;52.992;6.796;2023-04-24T07:43:21;10.30;99.90
54126;DHT22;40360;52.992;6.796;2023-04-24T07:45:47;10.30;99.90
54126;DHT22;40360;52.992;6.796;2023-04-24T07:48:13;10.30;99.90
54126;DHT22;40360;52.992;6.796;2023-04-24T07:50:42;10.30;99.90
54126;DHT22;40360;52.992;6.796;2023-04-24T07:53:07;10.20;99.90
54126;DHT22;40360;52.992;6.796;2023-04-24T07:55:33;10.20;99.90
54126;DHT22;40360;52.992;6.796;2023-04-24T07:57:59;10.20;99.90
54126;DHT22;40360;52.992;6.796;2023-04-24T08:00:24;10.10;99.90
54126;DHT22;40360;52.992;6.796;2023-04-24T08:02:50;10.10;99.90
54126;DHT22;40360;52.992;6.796;2023-04-24T08:05:16;10.10;99.90
54126;DHT22;40360;52.992;6.796;2023-04-24T08:07:41;10.20;99.90
54126;DHT22;40360;52.992;6.796;2023-04-24T08:10:09;10.20;99.90
54126;DHT22;40360;52.992;6.796;2023-04-24T08:12:36;10.20;99.90
54126;DHT22;40360;52.992;6.796;2023-04-24T08:15:02;10.20;99.90
54126;DHT22;40360;52.992;6.796;2023-04-24T08:17:27;10.20;99.90
54126;DHT22;40360;52.992;6.796;2023-04-24T08:19:53;10.20;99.90
54126;DHT22;40360;52.992;6.796;2023-04-24T08:22:27;10.40;99.90
54126;DHT22;40360;52.992;6.796;2023-04-24T08:24:53;10.30;99.90
54126;DHT22;40360;52.992;6.796;2023-04-24T08:27:18;10.20;99.90
54126;DHT22;40360;52.992;6.796;2023-04-24T08:29:44;10.10;99.90
54126;DHT22;40360;52.992;6.796;2023-04-24T08:32:10;10.10;99.90
54126;DHT22;40360;52.992;6.796;2023-04-24T08:34:35;10.10;99.90
54126;DHT22;40360;52.992;6.796;2023-04-24T08:37:01;10.00;99.90
54126;DHT22;40360;52.992;6.796;2023-04-24T08:39:27;9.90;99.90
54126;DHT22;40360;52.992;6.796;2023-04-24T08:41:55;10.00;99.90
54126;DHT22;40360;52.992;6.796;2023-04-24T08:44:21;9.90;99.90
54126;DHT22;40360;52.992;6.796;2023-04-24T08:46:48;9.90;99.90
54126;DHT22;40360;52.992;6.796;2023-04-24T08:49:14;9.90;99.90
54126;DHT22;40360;52.992;6.796;2023-04-24T08:51:44;9.90;99.90
54126;DHT22;40360;52.992;6.796;2023-04-24T08:54:12;9.90;99.90
54126;DHT22;40360;52.992;6.796;2023-04-24T08:56:38;9.80;99.90
54126;DHT22;40360;52.992;6.796;2023-04-24T08:59:06;9.80;99.90
54126;DHT22;40360;52.992;6.796;2023-04-24T09:01:32;9.70;99.90
54126;DHT22;40360;52.992;6.796;2023-04-24T09:04:01;9.70;99.90
54126;DHT22;40360;52.992;6.796;2023-04-24T09:06:27;9.60;99.90
54126;DHT22;40360;52.992;6.796;2023-04-24T09:08:54;9.50;99.90
54126;DHT22;40360;52.992;6.796;2023-04-24T09:11:21;9.50;99.90
54126;DHT22;40360;52.992;6.796;2023-04-24T09:13:50;9.50;99.90
54126;DHT22;40360;52.992;6.796;2023-04-24T09:16:16;9.50;99.90
54126;DHT22;40360;52.992;6.796;2023-04-24T09:18:42;9.40;99.90
54126;DHT22;40360;52.992;6.796;2023-04-24T09:21:09;9.40;99.90
54126;DHT22;40360;52.992;6.796;2023-04-24T09:23:35;9.40;99.90
54126;DHT22;40360;52.992;6.796;2023-04-24T09:26:02;9.30;99.90
54126;DHT22;40360;52.992;6.796;2023-04-24T09:28:36;9.30;99.90
54126;DHT22;40360;52.992;6.796;2023-04-24T09:31:08;9.30;99.90
54126;DHT22;40360;52.992;6.796;2023-04-24T09:33:34;9.20;99.90
54126;DHT22;40360;52.992;6.796;2023-04-24T09:36:00;9.20;99.90
54126;DHT22;40360;52.992;6.796;2023-04-24T09:38:34;9.10;99.90
54126;DHT22;40360;52.992;6.796;2023-04-24T09:41:02;9.10;99.90
54126;DHT22;40360;52.992;6.796;2023-04-24T09:43:29;9.20;99.90
54126;DHT22;40360;52.992;6.796;2023-04-24T09:45:59;9.10;99.90
54126;DHT22;40360;52.992;6.796;2023-04-24T09:48:36;9.10;99.90
54126;DHT22;40360;52.992;6.796;2023-04-24T09:51:03;9.10;99.90
54126;DHT22;40360;52.992;6.796;2023-04-24T09:53:30;9.00;99.90
54126;DHT22;40360;52.992;6.796;2023-04-24T09:55:56;9.10;99.90
54126;DHT22;40360;52.992;6.796;2023-04-24T09:58:27;9.10;99.90
54126;DHT22;40360;52.992;6.796;2023-04-24T10:00:55;9.10;99.90
54126;DHT22;40360;52.992;6.796;2023-04-24T10:03:24;9.10;99.90
54126;DHT22;40360;52.992;6.796;2023-04-24T10:05:52;9.10;99.90
54126;DHT22;40360;52.992;6.796;2023-04-24T10:08:18;9.10;99.90
54126;DHT22;40360;52.992;6.796;2023-04-24T10:10:44;9.10;99.90
54126;DHT22;40360;52.992;6.796;2023-04-24T10:13:11;9.10;99.90
54126;DHT22;40360;52.992;6.796;2023-04-24T10:15:38;9.10;99.90
54126;DHT22;40360;52.992;6.796;2023-04-24T10:18:05;9.10;99.90
54126;DHT22;40360;52.992;6.796;2023-04-24T10:20:32;9.10;99.90
54126;DHT22;40360;52.992;6.796;2023-04-24T10:22:59;9.10;99.90
54126;DHT22;40360;52.992;6.796;2023-04-24T10:25:29;9.10;99.90
54126;DHT22;40360;52.992;6.796;2023-04-24T10:27:56;9.10;99.90
54126;DHT22;40360;52.992;6.796;2023-04-24T10:30:26;9.10;99.90
54126;DHT22;40360;52.992;6.796;2023-04-24T10:32:52;9.10;99.90
54126;DHT22;40360;52.992;6.796;2023-04-24T10:35:18;9.20;99.90
54126;DHT22;40360;52.992;6.796;2023-04-24T10:38:03;9.20;99.90
54126;DHT22;40360;52.992;6.796;2023-04-24T10:40:33;9.20;99.90
54126;DHT22;40360;52.992;6.796;2023-04-24T10:42:59;9.30;99.90
54126;DHT22;40360;52.992;6.796;2023-04-24T10:45:27;9.30;99.90
54126;DHT22;40360;52.992;6.796;2023-04-24T10:48:04;9.40;99.90
54126;DHT22;40360;52.992;6.796;2023-04-24T10:50:48;9.40;99.90
54126;DHT22;40360;52.992;6.796;2023-04-24T10:53:20;9.40;99.90
54126;DHT22;40360;52.992;6.796;2023-04-24T10:58:16;9.40;99.90
54126;DHT22;40360;52.992;6.796;2023-04-24T11:00:43;9.40;99.90
54126;DHT22;40360;52.992;6.796;2023-04-24T11:03:27;9.40;99.90
54126;DHT22;40360;52.992;6.796;2023-04-24T11:05:57;9.40;99.90
54126;DHT22;40360;52.992;6.796;2023-04-24T11:08:31;9.40;99.90
54126;DHT22;40360;52.992;6.796;2023-04-24T11:11:18;9.50;99.90
54126;DHT22;40360;52.992;6.796;2023-04-24T11:19:07;9.50;99.90
54126;DHT22;40360;52.992;6.796;2023-04-24T11:21:46;9.50;99.90
54126;DHT22;40360;52.992;6.796;2023-04-24T11:24:39;9.50;99.90
54126;DHT22;40360;52.992;6.796;2023-04-24T11:27:19;9.60;99.90
54126;DHT22;40360;52.992;6.796;2023-04-24T11:35:00;9.90;99.90
54126;DHT22;40360;52.992;6.796;2023-04-24T11:37:40;10.00;99.90
54126;DHT22;40360;52.992;6.796;2023-04-24T11:40:08;10.10;99.90
54126;DHT22;40360;52.992;6.796;2023-04-24T11:42:38;10.10;99.90
54126;DHT22;40360;52.992;6.796;2023-04-24T11:45:08;10.00;99.90
54126;DHT22;40360;52.992;6.796;2023-04-24T11:47:35;9.90;99.90
54126;DHT22;40360;52.992;6.796;2023-04-24T11:50:01;9.90;99.90
54126;DHT22;40360;52.992;6.796;2023-04-24T11:52:28;9.80;99.90
54126;DHT22;40360;52.992;6.796;2023-04-24T11:54:54;9.70;99.90
54126;DHT22;40360;52.992;6.796;2023-04-24T11:57:21;9.80;99.90
54126;DHT22;40360;52.992;6.796;2023-04-24T11:59:47;9.90;99.90
54126;DHT22;40360;52.992;6.796;2023-04-24T12:02:20;10.00;99.90
54126;DHT22;40360;52.992;6.796;2023-04-24T12:04:46;10.10;99.90
54126;DHT22;40360;52.992;6.796;2023-04-24T12:07:12;10.10;99.90
54126;DHT22;40360;52.992;6.796;2023-04-24T12:09:46;10.10;99.90
54126;DHT22;40360;52.992;6.796;2023-04-24T12:12:13;10.10;99.90
54126;DHT22;40360;52.992;6.796;2023-04-24T12:14:48;10.00;99.90
54126;DHT22;40360;52.992;6.796;2023-04-24T12:17:16;9.90;99.90
54126;DHT22;40360;52.992;6.796;2023-04-24T12:19:46;9.90;99.90
54126;DHT22;40360;52.992;6.796;2023-04-24T12:22:12;9.70;99.90
54126;DHT22;40360;52.992;6.796;2023-04-24T12:24:56;9.60;99.90
54126;DHT22;40360;52.992;6.796;2023-04-24T12:27:22;9.40;99.90
54126;DHT22;40360;52.992;6.796;2023-04-24T12:30:11;9.40;99.90
54126;DHT22;40360;52.992;6.796;2023-04-24T12:32:42;9.30;99.90
54126;DHT22;40360;52.992;6.796;2023-04-24T12:35:08;9.30;99.90
54126;DHT22;40360;52.992;6.796;2023-04-24T12:37:34;9.30;99.90
54126;DHT22;40360;52.992;6.796;2023-04-24T12:42:30;9.40;99.90
54126;DHT22;40360;52.992;6.796;2023-04-24T12:45:06;9.40;99.90
54126;DHT22;40360;52.992;6.796;2023-04-24T12:47:32;9.40;99.90
54126;DHT22;40360;52.992;6.796;2023-04-24T12:49:58;9.50;99.90
54126;DHT22;40360;52.992;6.796;2023-04-24T12:52:27;9.50;99.90
54126;DHT22;40360;52.992;6.796;2023-04-24T12:54:54;9.60;99.90
54126;DHT22;40360;52.992;6.796;2023-04-24T12:57:21;9.60;99.90
54126;DHT22;40360;52.992;6.796;2023-04-24T12:59:46;9.70;99.90
54126;DHT22;40360;52.992;6.796;2023-04-24T13:02:12;9.70;99.90
54126;DHT22;40360;52.992;6.796;2023-04-24T13:04:38;9.70;99.90
54126;DHT22;40360;52.992;6.796;2023-04-24T13:07:05;9.80;99.90
54126;DHT22;40360;52.992;6.796;2023-04-24T13:09:31;9.70;99.90
54126;DHT22;40360;52.992;6.796;2023-04-24T13:11:57;9.70;99.90
54126;DHT22;40360;52.992;6.796;2023-04-24T13:14:23;9.70;99.90
54126;DHT22;40360;52.992;6.796;2023-04-24T13:16:49;9.60;99.90
54126;DHT22;40360;52.992;6.796;2023-04-24T13:19:14;9.50;99.90
54126;DHT22;40360;52.992;6.796;2023-04-24T13:21:40;9.60;99.90
54126;DHT22;40360;52.992;6.796;2023-04-24T13:24:06;9.60;99.90
54126;DHT22;40360;52.992;6.796;2023-04-24T13:26:33;9.50;99.90
54126;DHT22;40360;52.992;6.796;2023-04-24T13:28:59;9.50;99.90
54126;DHT22;40360;52.992;6.796;2023-04-24T13:31:24;9.50;99.90
54126;DHT22;40360;52.992;6.796;2023-04-24T13:33:50;9.50;99.90
54126;DHT22;40360;52.992;6.796;2023-04-24T13:36:16;9.60;99.90
54126;DHT22;40360;52.992;6.796;2023-04-24T13:38:45;9.60;99.90
54126;DHT22;40360;52.992;6.796;2023-04-24T13:41:11;9.60;99.90
54126;DHT22;40360;52.992;6.796;2023-04-24T13:43:37;9.60;99.90
54126;DHT22;40360;52.992;6.796;2023-04-24T13:46:02;9.60;99.90
54126;DHT22;40360;52.992;6.796;2023-04-24T13:48:29;9.60;99.90
54126;DHT22;40360;52.992;6.796;2023-04-24T13:50:55;9.60;99.90
54126;DHT22;40360;52.992;6.796;2023-04-24T13:53:20;9.50;99.90
54126;DHT22;40360;52.992;6.796;2023-04-24T13:55:46;9.50;99.90
54126;DHT22;40360;52.992;6.796;2023-04-24T13:58:11;9.50;99.90
54126;DHT22;40360;52.992;6.796;2023-04-24T14:00:37;9.50;99.90
54126;DHT22;40360;52.992;6.796;2023-04-24T14:03:03;9.60;99.90
54126;DHT22;40360;52.992;6.796;2023-04-24T14:05:29;9.70;99.90
54126;DHT22;40360;52.992;6.796;2023-04-24T14:07:54;9.80;99.90
54126;DHT22;40360;52.992;6.796;2023-04-24T14:10:20;10.00;99.90
54126;DHT22;40360;52.992;6.796;2023-04-24T14:12:46;10.00;99.90
54126;DHT22;40360;52.992;6.796;2023-04-24T14:15:11;10.10;99.90
54126;DHT22;40360;52.992;6.796;2023-04-24T14:17:38;10.10;99.90
54126;DHT22;40360;52.992;6.796;2023-04-24T14:20:05;10.00;99.90
54126;DHT22;40360;52.992;6.796;2023-04-24T14:22:32;9.90;99.90
54126;DHT22;40360;52.992;6.796;2023-04-24T14:24:58;9.80;99.90
54126;DHT22;40360;52.992;6.796;2023-04-24T14:27:24;9.80;99.90
54126;DHT22;40360;52.992;6.796;2023-04-24T14:29:50;9.80;99.90
54126;DHT22;40360;52.992;6.796;2023-04-24T14:32:16;9.70;99.90
54126;DHT22;40360;52.992;6.796;2023-04-24T14:34:41;9.70;99.90
54126;DHT22;40360;52.992;6.796;2023-04-24T14:37:07;9.60;99.90
54126;DHT22;40360;52.992;6.796;2023-04-24T14:39:33;9.50;99.90
54126;DHT22;40360;52.992;6.796;2023-04-24T14:41:59;9.50;99.90
54126;DHT22;40360;52.992;6.796;2023-04-24T14:44:25;9.50;99.90
54126;DHT22;40360;52.992;6.796;2023-04-24T14:46:50;9.40;99.90
54126;DHT22;40360;52.992;6.796;2023-04-24T14:49:16;9.40;99.90
54126;DHT22;40360;52.992;6.796;2023-04-24T14:51:42;9.40;99.90
54126;DHT22;40360;52.992;6.796;2023-04-24T14:54:08;9.40;99.90
54126;DHT22;40360;52.992;6.796;2023-04-24T14:56:33;9.30;99.90
54126;DHT22;40360;52.992;6.796;2023-04-24T14:58:59;9.30;99.90
54126;DHT22;40360;52.992;6.796;2023-04-24T15:01:25;9.20;99.90
54126;DHT22;40360;52.992;6.796;2023-04-24T15:03:50;9.10;99.90
54126;DHT22;40360;52.992;6.796;2023-04-24T15:06:16;9.00;99.90
54126;DHT22;40360;52.992;6.796;2023-04-24T15:08:41;9.00;99.90
54126;DHT22;40360;52.992;6.796;2023-04-24T15:11:08;9.00;99.90
54126;DHT22;40360;52.992;6.796;2023-04-24T15:13:34;9.00;99.90
54126;DHT22;40360;52.992;6.796;2023-04-24T15:16:00;9.10;99.90
54126;DHT22;40360;52.992;6.796;2023-04-24T15:18:25;9.00;99.90
54126;DHT22;40360;52.992;6.796;2023-04-24T15:20:53;9.00;99.90
54126;DHT22;40360;52.992;6.796;2023-04-24T15:23:18;9.00;99.90
54126;DHT22;40360;52.992;6.796;2023-04-24T15:25:44;9.00;99.90
54126;DHT22;40360;52.992;6.796;2023-04-24T15:28:09;9.00;99.90
54126;DHT22;40360;52.992;6.796;2023-04-24T15:30:35;8.90;99.90
54126;DHT22;40360;52.992;6.796;2023-04-24T15:33:01;8.90;99.90
54126;DHT22;40360;52.992;6.796;2023-04-24T15:35:27;8.80;99.90
54126;DHT22;40360;52.992;6.796;2023-04-24T15:37:53;8.80;99.90
54126;DHT22;40360;52.992;6.796;2023-04-24T15:40:18;8.80;99.90
54126;DHT22;40360;52.992;6.796;2023-04-24T15:42:45;8.90;99.90
54126;DHT22;40360;52.992;6.796;2023-04-24T15:45:10;8.90;99.90
54126;DHT22;40360;52.992;6.796;2023-04-24T15:47:37;8.90;99.90
54126;DHT22;40360;52.992;6.796;2023-04-24T15:50:03;8.90;99.90
54126;DHT22;40360;52.992;6.796;2023-04-24T15:52:29;8.90;99.90
54126;DHT22;40360;52.992;6.796;2023-04-24T15:54:55;8.90;99.90
54126;DHT22;40360;52.992;6.796;2023-04-24T15:57:20;8.90;99.90
54126;DHT22;40360;52.992;6.796;2023-04-24T15:59:46;9.00;99.90
54126;DHT22;40360;52.992;6.796;2023-04-24T16:02:13;9.00;99.90
54126;DHT22;40360;52.992;6.796;2023-04-24T16:04:44;9.00;99.90
54126;DHT22;40360;52.992;6.796;2023-04-24T16:07:11;9.00;99.90
54126;DHT22;40360;52.992;6.796;2023-04-24T16:09:36;9.00;99.90
54126;DHT22;40360;52.992;6.796;2023-04-24T16:12:02;8.90;99.90
54126;DHT22;40360;52.992;6.796;2023-04-24T16:14:27;8.90;99.90